createdAt,value
2017-06-18T00:00:02.073Z,0
2017-06-18T00:00:42.621Z,0
2017-06-18T00:01:23.158Z,0
2017-06-18T00:02:03.702Z,0
2017-06-18T00:02:44.246Z,0
2017-06-18T00:03:24.797Z,0
2017-06-18T00:04:05.337Z,0
2017-06-18T00:04:45.896Z,0
2017-06-18T00:05:26.442Z,0
2017-06-18T00:06:06.985Z,0
2017-06-18T00:06:47.536Z,0
2017-06-18T00:07:28.074Z,0
2017-06-18T00:08:08.608Z,0
2017-06-18T00:08:49.150Z,0
2017-06-18T00:09:29.683Z,0
2017-06-18T00:10:10.232Z,0
2017-06-18T00:10:50.780Z,0
2017-06-18T00:11:31.333Z,0
2017-06-18T00:12:11.869Z,0
2017-06-18T00:12:52.413Z,0
2017-06-18T00:13:32.944Z,0
2017-06-18T00:14:13.495Z,0
2017-06-18T00:14:54.052Z,0
2017-06-18T00:15:34.574Z,0
2017-06-18T00:16:15.117Z,0
2017-06-18T00:16:55.654Z,0
2017-06-18T00:17:36.194Z,0
2017-06-18T00:18:16.738Z,0
2017-06-18T00:18:57.280Z,0
2017-06-18T00:19:37.822Z,0
2017-06-18T00:20:18.365Z,0
2017-06-18T00:20:58.907Z,0
2017-06-18T00:21:39.451Z,0
2017-06-18T00:23:58.818Z,0
2017-06-18T00:24:39.343Z,0
2017-06-18T00:25:19.886Z,0
2017-06-18T00:26:00.417Z,0
2017-06-18T00:26:40.962Z,0
2017-06-18T00:27:21.515Z,0
2017-06-18T00:28:02.045Z,0
2017-06-18T00:28:42.590Z,0
2017-06-18T00:29:23.131Z,0
2017-06-18T00:30:03.665Z,0
2017-06-18T00:30:44.217Z,0
2017-06-18T00:31:24.753Z,0
2017-06-18T00:32:05.295Z,0
2017-06-18T00:32:45.829Z,0
2017-06-18T00:33:26.367Z,0
2017-06-18T00:34:06.906Z,0
2017-06-18T00:34:47.444Z,0
2017-06-18T00:35:27.979Z,0
2017-06-18T00:36:08.529Z,0
2017-06-18T00:36:49.080Z,0
2017-06-18T00:37:29.615Z,0
2017-06-18T00:38:10.155Z,0
2017-06-18T00:38:50.693Z,0
2017-06-18T00:39:31.230Z,0
2017-06-18T00:40:11.777Z,0
2017-06-18T00:40:52.325Z,0
2017-06-18T00:41:32.874Z,0
2017-06-18T00:42:13.414Z,0
2017-06-18T00:42:53.961Z,0
2017-06-18T00:43:34.496Z,0
2017-06-18T00:44:15.083Z,0
2017-06-18T00:44:55.640Z,0
2017-06-18T00:45:36.165Z,0
2017-06-18T00:46:16.714Z,0
2017-06-18T00:46:57.245Z,0
2017-06-18T00:47:37.793Z,0
2017-06-18T00:48:18.331Z,0
2017-06-18T00:48:58.888Z,0
2017-06-18T00:49:39.425Z,0
2017-06-18T00:50:19.962Z,0
2017-06-18T00:51:00.504Z,0
2017-06-18T00:51:41.047Z,0
2017-06-18T00:52:21.670Z,0
2017-06-18T00:53:02.212Z,0
2017-06-18T00:53:42.757Z,0
2017-06-18T00:54:23.283Z,0
2017-06-18T00:55:03.814Z,0
2017-06-18T00:55:44.366Z,0
2017-06-18T00:56:24.925Z,0
2017-06-18T00:57:05.467Z,0
2017-06-18T00:57:46.012Z,0
2017-06-18T00:58:26.554Z,0
2017-06-18T00:59:07.101Z,0
2017-06-18T00:59:47.643Z,0
2017-06-18T01:00:28.194Z,0
2017-06-18T01:01:08.742Z,0
2017-06-18T01:01:49.282Z,0
2017-06-18T01:02:29.824Z,0
2017-06-18T01:03:10.376Z,0
2017-06-18T01:03:50.896Z,0
2017-06-18T01:04:31.434Z,0
2017-06-18T01:05:11.977Z,0
2017-06-18T01:05:52.526Z,0
2017-06-18T01:06:33.074Z,0
2017-06-18T01:07:13.613Z,0
2017-06-18T01:07:54.162Z,0
2017-06-18T01:08:34.712Z,0
2017-06-18T01:09:15.256Z,0
2017-06-18T01:09:55.805Z,0
2017-06-18T01:10:36.355Z,0
2017-06-18T01:11:16.909Z,0
2017-06-18T01:11:57.511Z,0
2017-06-18T01:12:38.055Z,0
2017-06-18T01:13:18.578Z,0
2017-06-18T01:13:59.123Z,0
2017-06-18T01:14:39.669Z,0
2017-06-18T01:15:20.205Z,0
2017-06-18T01:16:00.776Z,0
2017-06-18T01:16:41.285Z,0
2017-06-18T01:17:21.844Z,0
2017-06-18T01:18:02.411Z,0
2017-06-18T01:18:42.939Z,0
2017-06-18T01:19:23.496Z,0
2017-06-18T01:20:04.035Z,0
2017-06-18T01:20:44.585Z,0
2017-06-18T01:21:25.107Z,0
2017-06-18T01:22:05.647Z,0
2017-06-18T01:22:46.186Z,0
2017-06-18T01:23:26.717Z,0
2017-06-18T01:24:07.278Z,0
2017-06-18T01:24:47.828Z,0
2017-06-18T01:25:28.375Z,0
2017-06-18T01:26:08.915Z,0
2017-06-18T01:26:49.471Z,0
2017-06-18T01:27:30.030Z,0
2017-06-18T01:28:10.576Z,0
2017-06-18T01:28:51.115Z,0
2017-06-18T01:29:31.664Z,0
2017-06-18T01:30:12.217Z,0
2017-06-18T01:30:52.762Z,0
2017-06-18T01:31:33.297Z,0
2017-06-18T01:32:13.860Z,0
2017-06-18T01:32:54.402Z,0
2017-06-18T01:33:34.931Z,0
2017-06-18T01:34:15.467Z,0
2017-06-18T01:34:56.006Z,0
2017-06-18T01:35:36.537Z,0
2017-06-18T01:36:17.076Z,0
2017-06-18T01:36:57.624Z,0
2017-06-18T01:37:38.175Z,0
2017-06-18T01:38:18.719Z,0
2017-06-18T01:38:59.269Z,0
2017-06-18T01:39:39.809Z,0
2017-06-18T01:40:20.369Z,0
2017-06-18T01:41:00.919Z,0
2017-06-18T01:41:41.467Z,0
2017-06-18T01:42:22.016Z,0
2017-06-18T01:43:02.561Z,0
2017-06-18T01:43:43.098Z,0
2017-06-18T01:44:23.632Z,0
2017-06-18T01:45:04.172Z,0
2017-06-18T01:45:44.709Z,0
2017-06-18T01:46:25.256Z,0
2017-06-18T01:47:05.801Z,0
2017-06-18T01:47:46.351Z,0
2017-06-18T01:48:26.902Z,0
2017-06-18T01:49:07.445Z,0
2017-06-18T01:49:48.000Z,0
2017-06-18T01:50:28.540Z,0
2017-06-18T01:51:09.090Z,0
2017-06-18T01:51:49.628Z,0
2017-06-18T01:52:30.173Z,0
2017-06-18T01:53:10.731Z,0
2017-06-18T01:53:51.276Z,0
2017-06-18T01:54:31.830Z,0
2017-06-18T01:55:12.374Z,0
2017-06-18T01:55:52.907Z,0
2017-06-18T01:56:33.454Z,0
2017-06-18T01:57:13.993Z,0
2017-06-18T01:57:54.530Z,0
2017-06-18T01:58:35.077Z,0
2017-06-18T01:59:15.615Z,0
2017-06-18T01:59:56.160Z,0
2017-06-18T02:00:36.700Z,0
2017-06-18T02:01:17.249Z,0
2017-06-18T02:01:57.789Z,0
2017-06-18T02:02:38.355Z,0
2017-06-18T02:03:18.881Z,0
2017-06-18T02:03:59.424Z,0
2017-06-18T02:04:39.989Z,0
2017-06-18T02:05:20.525Z,0
2017-06-18T02:06:01.068Z,0
2017-06-18T02:06:41.612Z,0
2017-06-18T02:07:22.158Z,0
2017-06-18T02:08:02.697Z,0
2017-06-18T02:08:43.245Z,0
2017-06-18T02:09:23.795Z,0
2017-06-18T02:10:04.337Z,0
2017-06-18T02:10:44.882Z,0
2017-06-18T02:11:25.417Z,0
2017-06-18T02:12:05.962Z,0
2017-06-18T02:12:46.507Z,0
2017-06-18T02:13:27.060Z,0
2017-06-18T02:14:07.646Z,0
2017-06-18T02:14:48.194Z,0
2017-06-18T02:15:28.755Z,0
2017-06-18T02:16:09.284Z,0
2017-06-18T02:16:49.836Z,0
2017-06-18T02:17:30.384Z,0
2017-06-18T02:18:10.921Z,0
2017-06-18T02:18:51.468Z,0
2017-06-18T02:19:32.008Z,0
2017-06-18T02:20:12.534Z,0
2017-06-18T02:20:53.081Z,0
2017-06-18T02:21:33.624Z,0
2017-06-18T02:22:14.168Z,0
2017-06-18T02:22:54.704Z,0
2017-06-18T02:23:35.247Z,0
2017-06-18T02:24:15.788Z,0
2017-06-18T02:24:56.328Z,0
2017-06-18T02:25:36.891Z,0
2017-06-18T02:26:17.429Z,0
2017-06-18T02:26:57.972Z,0
2017-06-18T02:27:38.520Z,0
2017-06-18T02:28:19.046Z,0
2017-06-18T02:28:59.596Z,0
2017-06-18T02:29:40.130Z,0
2017-06-18T02:30:20.664Z,0
2017-06-18T02:31:01.200Z,0
2017-06-18T02:31:41.737Z,0
2017-06-18T02:32:22.284Z,0
2017-06-18T02:33:02.827Z,0
2017-06-18T02:33:43.372Z,0
2017-06-18T02:34:23.929Z,0
2017-06-18T02:35:04.467Z,0
2017-06-18T02:35:45.003Z,0
2017-06-18T02:36:25.556Z,0
2017-06-18T02:37:06.092Z,0
2017-06-18T02:37:46.626Z,0
2017-06-18T02:38:27.169Z,0
2017-06-18T02:39:07.705Z,0
2017-06-18T02:39:48.243Z,0
2017-06-18T02:40:28.783Z,0
2017-06-18T02:41:09.325Z,0
2017-06-18T02:41:49.877Z,0
2017-06-18T02:42:30.409Z,0
2017-06-18T02:43:10.953Z,0
2017-06-18T02:43:51.494Z,0
2017-06-18T02:44:32.034Z,0
2017-06-18T02:45:12.568Z,0
2017-06-18T02:45:53.110Z,0
2017-06-18T02:46:33.649Z,0
2017-06-18T02:47:14.181Z,0
2017-06-18T02:47:54.726Z,0
2017-06-18T02:48:35.248Z,0
2017-06-18T02:49:15.788Z,0
2017-06-18T02:49:56.330Z,0
2017-06-18T02:50:36.867Z,0
2017-06-18T02:51:17.405Z,0
2017-06-18T02:51:57.954Z,0
2017-06-18T02:52:38.496Z,0
2017-06-18T02:53:19.035Z,0
2017-06-18T02:53:59.587Z,0
2017-06-18T02:54:40.116Z,0
2017-06-18T02:55:20.649Z,0
2017-06-18T02:56:01.181Z,0
2017-06-18T02:56:41.726Z,0
2017-06-18T02:57:22.278Z,0
2017-06-18T02:58:02.817Z,0
2017-06-18T02:58:43.378Z,0
2017-06-18T02:59:23.917Z,0
2017-06-18T03:00:04.461Z,0
2017-06-18T03:00:44.992Z,0
2017-06-18T03:01:25.527Z,0
2017-06-18T03:02:06.065Z,0
2017-06-18T03:02:46.592Z,0
2017-06-18T03:03:27.129Z,0
2017-06-18T03:04:07.681Z,0
2017-06-18T03:04:48.212Z,0
2017-06-18T03:05:28.743Z,0
2017-06-18T03:06:09.283Z,0
2017-06-18T03:06:49.821Z,0
2017-06-18T03:07:30.367Z,0
2017-06-18T03:08:10.907Z,0
2017-06-18T03:08:51.444Z,0
2017-06-18T03:09:31.972Z,0
2017-06-18T03:10:12.509Z,0
2017-06-18T03:10:53.060Z,0
2017-06-18T03:11:33.606Z,0
2017-06-18T03:12:14.165Z,0
2017-06-18T03:12:54.691Z,0
2017-06-18T03:13:35.235Z,0
2017-06-18T03:14:15.772Z,0
2017-06-18T03:14:56.319Z,0
2017-06-18T03:15:36.842Z,0
2017-06-18T03:16:17.423Z,5
2017-06-18T03:16:57.963Z,5
2017-06-18T03:17:38.496Z,5
2017-06-18T03:18:19.035Z,5
2017-06-18T03:18:59.586Z,5
2017-06-18T03:19:40.136Z,5
2017-06-18T03:20:20.682Z,5
2017-06-18T03:21:01.213Z,5
2017-06-18T03:21:41.770Z,5
2017-06-18T03:22:22.299Z,5
2017-06-18T03:23:02.845Z,5
2017-06-18T03:23:43.392Z,5
2017-06-18T03:24:23.937Z,5
2017-06-18T03:25:04.477Z,5
2017-06-18T03:25:45.022Z,5
2017-06-18T03:26:25.566Z,5
2017-06-18T03:27:06.116Z,10
2017-06-18T03:27:46.658Z,10
2017-06-18T03:28:27.181Z,10
2017-06-18T03:29:07.725Z,10
2017-06-18T03:29:48.271Z,10
2017-06-18T03:30:28.806Z,10
2017-06-18T03:31:09.328Z,10
2017-06-18T03:31:49.864Z,10
2017-06-18T03:32:30.416Z,10
2017-06-18T03:33:10.979Z,10
2017-06-18T03:33:51.524Z,10
2017-06-18T03:34:32.066Z,10
2017-06-18T03:35:12.613Z,15
2017-06-18T03:35:53.162Z,15
2017-06-18T03:36:33.705Z,15
2017-06-18T03:37:14.247Z,15
2017-06-18T03:37:54.789Z,15
2017-06-18T03:38:35.333Z,15
2017-06-18T03:39:15.884Z,15
2017-06-18T03:39:56.418Z,15
2017-06-18T03:40:36.949Z,15
2017-06-18T03:41:17.487Z,15
2017-06-18T03:41:58.034Z,15
2017-06-18T03:42:38.574Z,20
2017-06-18T03:43:19.116Z,20
2017-06-18T03:43:59.657Z,20
2017-06-18T03:44:40.198Z,20
2017-06-18T03:45:20.736Z,20
2017-06-18T03:46:01.270Z,20
2017-06-18T03:46:41.816Z,20
2017-06-18T03:47:22.342Z,20
2017-06-18T03:48:02.880Z,20
2017-06-18T03:48:43.428Z,20
2017-06-18T03:49:23.969Z,25
2017-06-18T03:50:04.523Z,25
2017-06-18T03:50:45.089Z,25
2017-06-18T03:51:25.641Z,25
2017-06-18T03:52:06.182Z,25
2017-06-18T03:52:46.744Z,25
2017-06-18T03:53:27.295Z,25
2017-06-18T03:54:07.840Z,25
2017-06-18T03:54:48.373Z,25
2017-06-18T03:55:28.921Z,25
2017-06-18T03:56:09.464Z,30
2017-06-18T03:56:49.998Z,30
2017-06-18T03:57:30.542Z,30
2017-06-18T03:58:11.082Z,30
2017-06-18T03:58:51.623Z,30
2017-06-18T03:59:32.162Z,30
2017-06-18T04:00:12.697Z,30
2017-06-18T04:00:53.241Z,30
2017-06-18T04:01:33.789Z,30
2017-06-18T04:02:14.331Z,30
2017-06-18T04:02:54.878Z,35
2017-06-18T04:03:35.428Z,35
2017-06-18T04:04:15.979Z,35
2017-06-18T04:04:56.529Z,35
2017-06-18T04:05:37.079Z,35
2017-06-18T04:06:17.654Z,35
2017-06-18T04:06:58.203Z,35
2017-06-18T04:07:38.749Z,35
2017-06-18T04:08:19.300Z,35
2017-06-18T04:08:59.851Z,40
2017-06-18T04:09:40.403Z,40
2017-06-18T04:10:20.949Z,40
2017-06-18T04:11:01.501Z,40
2017-06-18T04:11:42.041Z,40
2017-06-18T04:12:22.590Z,40
2017-06-18T04:13:03.142Z,40
2017-06-18T04:13:43.707Z,40
2017-06-18T04:14:24.257Z,40
2017-06-18T04:15:04.793Z,40
2017-06-18T04:15:45.341Z,45
2017-06-18T04:16:25.886Z,45
2017-06-18T04:17:06.437Z,45
2017-06-18T04:17:46.989Z,45
2017-06-18T04:18:27.528Z,45
2017-06-18T04:19:08.063Z,45
2017-06-18T04:19:48.595Z,45
2017-06-18T04:20:29.135Z,45
2017-06-18T04:21:09.678Z,45
2017-06-18T04:21:50.221Z,50
2017-06-18T04:22:30.763Z,50
2017-06-18T04:23:11.308Z,50
2017-06-18T04:23:51.853Z,50
2017-06-18T04:24:32.399Z,50
2017-06-18T04:25:12.937Z,50
2017-06-18T04:25:53.483Z,50
2017-06-18T04:26:34.035Z,50
2017-06-18T04:27:14.577Z,50
2017-06-18T04:27:55.115Z,50
2017-06-18T04:28:35.655Z,50
2017-06-18T04:29:16.196Z,55
2017-06-18T04:29:56.746Z,55
2017-06-18T04:30:37.282Z,55
2017-06-18T04:31:17.820Z,55
2017-06-18T04:31:58.382Z,55
2017-06-18T04:32:38.928Z,55
2017-06-18T04:33:19.477Z,55
2017-06-18T04:34:00.039Z,55
2017-06-18T04:34:40.591Z,55
2017-06-18T04:35:21.140Z,55
2017-06-18T04:36:01.682Z,55
2017-06-18T04:36:42.224Z,60
2017-06-18T04:37:22.770Z,60
2017-06-18T04:38:03.313Z,60
2017-06-18T04:38:43.869Z,60
2017-06-18T04:39:24.405Z,60
2017-06-18T04:40:04.963Z,60
2017-06-18T04:40:45.508Z,60
2017-06-18T04:41:26.053Z,60
2017-06-18T04:42:06.585Z,60
2017-06-18T04:42:47.128Z,60
2017-06-18T04:43:27.669Z,60
2017-06-18T04:44:08.205Z,65
2017-06-18T04:44:48.734Z,65
2017-06-18T04:45:29.284Z,65
2017-06-18T04:46:09.829Z,65
2017-06-18T04:46:50.379Z,65
2017-06-18T04:47:30.924Z,65
2017-06-18T04:48:11.462Z,65
2017-06-18T04:48:52.018Z,65
2017-06-18T04:49:32.575Z,65
2017-06-18T04:50:13.099Z,65
2017-06-18T04:50:53.633Z,70
2017-06-18T04:51:34.174Z,70
2017-06-18T04:52:14.700Z,70
2017-06-18T04:52:55.250Z,70
2017-06-18T04:53:35.790Z,70
2017-06-18T04:54:16.340Z,70
2017-06-18T04:54:56.913Z,70
2017-06-18T04:55:37.455Z,70
2017-06-18T04:56:18.043Z,70
2017-06-18T04:56:58.576Z,75
2017-06-18T04:57:39.117Z,75
2017-06-18T04:58:19.660Z,75
2017-06-18T04:59:00.214Z,75
2017-06-18T04:59:40.763Z,75
2017-06-18T05:00:21.303Z,75
2017-06-18T05:01:01.859Z,75
2017-06-18T05:01:42.398Z,75
2017-06-18T05:02:22.948Z,75
2017-06-18T05:03:03.491Z,75
2017-06-18T05:03:44.034Z,80
2017-06-18T05:04:24.593Z,80
2017-06-18T05:05:05.154Z,80
2017-06-18T05:05:45.705Z,80
2017-06-18T05:06:26.254Z,80
2017-06-18T05:07:06.793Z,80
2017-06-18T05:07:47.332Z,80
2017-06-18T05:08:27.860Z,80
2017-06-18T05:09:08.406Z,80
2017-06-18T05:09:48.941Z,80
2017-06-18T05:10:29.526Z,85
2017-06-18T05:11:10.090Z,85
2017-06-18T05:11:50.631Z,85
2017-06-18T05:12:31.168Z,85
2017-06-18T05:13:11.708Z,85
2017-06-18T05:13:52.244Z,85
2017-06-18T05:14:32.783Z,85
2017-06-18T05:15:13.326Z,85
2017-06-18T05:15:53.874Z,85
2017-06-18T05:16:34.415Z,90
2017-06-18T05:17:14.963Z,90
2017-06-18T05:17:55.510Z,90
2017-06-18T05:18:36.056Z,90
2017-06-18T05:19:16.595Z,90
2017-06-18T05:19:57.147Z,90
2017-06-18T05:20:37.689Z,90
2017-06-18T05:21:18.232Z,90
2017-06-18T05:21:58.761Z,95
2017-06-18T05:22:39.308Z,95
2017-06-18T05:23:19.860Z,95
2017-06-18T05:24:00.400Z,95
2017-06-18T05:24:40.947Z,95
2017-06-18T05:25:21.494Z,95
2017-06-18T05:26:02.041Z,95
2017-06-18T05:26:42.583Z,100
2017-06-18T05:27:23.153Z,100
2017-06-18T05:28:03.698Z,100
2017-06-18T05:28:44.233Z,105
2017-06-18T05:29:24.781Z,105
2017-06-18T05:30:05.448Z,105
2017-06-18T05:30:46.003Z,105
2017-06-18T05:31:26.550Z,105
2017-06-18T05:32:07.097Z,105
2017-06-18T05:32:47.648Z,110
2017-06-18T05:33:28.185Z,110
2017-06-18T05:34:08.734Z,110
2017-06-18T05:34:49.281Z,115
2017-06-18T05:35:29.820Z,120
2017-06-18T05:36:10.373Z,120
2017-06-18T05:36:50.903Z,120
2017-06-18T05:37:31.437Z,120
2017-06-18T05:38:11.979Z,125
2017-06-18T05:38:52.512Z,125
2017-06-18T05:39:33.054Z,125
2017-06-18T05:40:13.603Z,125
2017-06-18T05:40:54.146Z,125
2017-06-18T05:41:34.707Z,125
2017-06-18T05:42:15.247Z,130
2017-06-18T05:42:55.799Z,130
2017-06-18T05:43:36.353Z,130
2017-06-18T05:44:16.901Z,130
2017-06-18T05:44:57.445Z,135
2017-06-18T05:45:37.985Z,135
2017-06-18T05:46:18.527Z,135
2017-06-18T05:46:59.071Z,135
2017-06-18T05:47:39.623Z,135
2017-06-18T05:48:20.145Z,135
2017-06-18T05:49:00.687Z,135
2017-06-18T05:49:41.228Z,135
2017-06-18T05:50:21.770Z,135
2017-06-18T05:51:02.318Z,135
2017-06-18T05:51:42.858Z,140
2017-06-18T05:52:23.519Z,140
2017-06-18T05:53:05.174Z,140
2017-06-18T05:53:46.250Z,140
2017-06-18T05:54:26.806Z,140
2017-06-18T05:55:07.351Z,145
2017-06-18T05:55:47.902Z,145
2017-06-18T05:56:28.431Z,145
2017-06-18T05:57:08.961Z,145
2017-06-18T05:57:49.489Z,145
2017-06-18T05:58:30.031Z,145
2017-06-18T05:59:10.578Z,145
2017-06-18T05:59:51.124Z,150
2017-06-18T06:00:31.668Z,150
2017-06-18T06:01:12.221Z,150
2017-06-18T06:01:52.773Z,150
2017-06-18T06:02:33.324Z,150
2017-06-18T06:03:13.864Z,150
2017-06-18T06:03:54.416Z,150
2017-06-18T06:04:34.985Z,150
2017-06-18T06:05:15.530Z,155
2017-06-18T06:05:56.082Z,155
2017-06-18T06:06:36.630Z,155
2017-06-18T06:07:17.182Z,155
2017-06-18T06:07:57.736Z,155
2017-06-18T06:08:38.291Z,155
2017-06-18T06:09:18.835Z,155
2017-06-18T06:09:59.391Z,155
2017-06-18T06:10:39.938Z,155
2017-06-18T06:11:20.498Z,155
2017-06-18T06:12:01.042Z,155
2017-06-18T06:12:41.584Z,160
2017-06-18T06:13:22.123Z,160
2017-06-18T06:14:02.669Z,160
2017-06-18T06:14:43.220Z,165
2017-06-18T06:15:23.759Z,165
2017-06-18T06:16:04.313Z,165
2017-06-18T06:16:44.854Z,165
2017-06-18T06:17:25.395Z,165
2017-06-18T06:18:05.933Z,170
2017-06-18T06:18:46.463Z,170
2017-06-18T06:19:26.983Z,170
2017-06-18T06:20:07.551Z,170
2017-06-18T06:20:48.096Z,170
2017-06-18T06:21:28.647Z,170
2017-06-18T06:22:09.187Z,170
2017-06-18T06:22:49.747Z,175
2017-06-18T06:23:30.289Z,175
2017-06-18T06:24:10.834Z,175
2017-06-18T06:24:51.384Z,180
2017-06-18T06:25:31.935Z,175
2017-06-18T06:26:12.475Z,180
2017-06-18T06:26:53.015Z,175
2017-06-18T06:27:33.574Z,175
2017-06-18T06:28:14.107Z,180
2017-06-18T06:28:54.646Z,175
2017-06-18T06:29:35.192Z,180
2017-06-18T06:30:15.735Z,180
2017-06-18T06:30:56.280Z,180
2017-06-18T06:31:36.827Z,180
2017-06-18T06:32:17.371Z,180
2017-06-18T06:32:57.918Z,185
2017-06-18T06:33:38.452Z,185
2017-06-18T06:34:18.997Z,185
2017-06-18T06:34:59.554Z,185
2017-06-18T06:35:40.099Z,185
2017-06-18T06:36:20.657Z,185
2017-06-18T06:37:01.211Z,175
2017-06-18T06:37:41.770Z,170
2017-06-18T06:38:22.340Z,180
2017-06-18T06:39:02.890Z,185
2017-06-18T06:39:43.438Z,185
2017-06-18T06:40:23.990Z,190
2017-06-18T06:41:04.534Z,190
2017-06-18T06:41:45.084Z,190
2017-06-18T06:42:25.630Z,190
2017-06-18T06:43:06.173Z,195
2017-06-18T06:43:46.728Z,195
2017-06-18T06:44:27.424Z,195
2017-06-18T06:45:07.966Z,195
2017-06-18T06:45:48.511Z,195
2017-06-18T06:46:29.045Z,195
2017-06-18T06:47:09.587Z,195
2017-06-18T06:47:50.163Z,195
2017-06-18T06:48:30.800Z,195
2017-06-18T06:49:11.298Z,200
2017-06-18T06:49:51.847Z,200
2017-06-18T06:50:32.376Z,200
2017-06-18T06:51:12.922Z,200
2017-06-18T06:51:53.459Z,200
2017-06-18T06:52:34.011Z,200
2017-06-18T06:53:14.562Z,195
2017-06-18T06:53:55.101Z,195
2017-06-18T06:54:35.631Z,195
2017-06-18T06:55:16.170Z,200
2017-06-18T06:55:56.724Z,205
2017-06-18T06:56:37.277Z,210
2017-06-18T06:57:17.808Z,200
2017-06-18T06:57:58.348Z,205
2017-06-18T06:58:38.894Z,210
2017-06-18T06:59:19.432Z,215
2017-06-18T06:59:59.980Z,215
2017-06-18T07:00:40.526Z,215
2017-06-18T07:01:21.068Z,215
2017-06-18T07:02:01.622Z,215
2017-06-18T07:02:42.161Z,215
2017-06-18T07:03:22.710Z,215
2017-06-18T07:04:03.259Z,215
2017-06-18T07:04:43.792Z,215
2017-06-18T07:05:24.359Z,220
2017-06-18T07:06:04.912Z,220
2017-06-18T07:06:45.456Z,220
2017-06-18T07:07:26.011Z,220
2017-06-18T07:08:06.567Z,220
2017-06-18T07:08:47.114Z,220
2017-06-18T07:09:27.666Z,220
2017-06-18T07:10:08.219Z,220
2017-06-18T07:10:48.763Z,225
2017-06-18T07:11:29.323Z,225
2017-06-18T07:12:09.886Z,225
2017-06-18T07:12:50.436Z,230
2017-06-18T07:13:30.987Z,230
2017-06-18T07:14:11.536Z,230
2017-06-18T07:14:52.083Z,230
2017-06-18T07:15:32.636Z,235
2017-06-18T07:16:13.183Z,235
2017-06-18T07:16:53.722Z,235
2017-06-18T07:17:34.259Z,235
2017-06-18T07:18:14.808Z,240
2017-06-18T07:18:55.369Z,240
2017-06-18T07:19:35.926Z,235
2017-06-18T07:20:16.480Z,255
2017-06-18T07:20:57.030Z,260
2017-06-18T07:21:37.587Z,265
2017-06-18T07:22:18.136Z,265
2017-06-18T07:22:58.726Z,265
2017-06-18T07:23:39.267Z,265
2017-06-18T07:24:19.796Z,265
2017-06-18T07:25:00.344Z,260
2017-06-18T07:25:40.890Z,255
2017-06-18T07:26:21.424Z,255
2017-06-18T07:27:01.979Z,260
2017-06-18T07:27:42.531Z,260
2017-06-18T07:28:23.083Z,265
2017-06-18T07:29:03.635Z,275
2017-06-18T07:29:44.189Z,285
2017-06-18T07:30:24.738Z,290
2017-06-18T07:31:05.289Z,300
2017-06-18T07:31:45.842Z,300
2017-06-18T07:32:26.405Z,305
2017-06-18T07:33:06.935Z,305
2017-06-18T07:33:47.975Z,310
2017-06-18T07:34:28.691Z,310
2017-06-18T07:35:09.392Z,315
2017-06-18T07:35:49.984Z,315
2017-06-18T07:36:30.630Z,320
2017-06-18T07:37:11.431Z,335
2017-06-18T07:37:52.790Z,350
2017-06-18T07:38:33.826Z,360
2017-06-18T07:39:14.429Z,365
2017-06-18T07:39:55.199Z,360
2017-06-18T07:40:35.914Z,385
2017-06-18T07:41:16.752Z,430
2017-06-18T07:41:57.303Z,560
2017-06-18T07:42:37.840Z,970
2017-06-18T07:43:18.389Z,1530
2017-06-18T07:43:58.934Z,2050
2017-06-18T07:44:39.509Z,2380
2017-06-18T07:45:20.054Z,2530
2017-06-18T07:46:00.600Z,2545
2017-06-18T07:46:41.156Z,2495
2017-06-18T07:47:21.711Z,2410
2017-06-18T07:48:02.273Z,350
2017-06-18T07:48:42.813Z,305
2017-06-18T07:49:23.362Z,320
2017-06-18T07:50:03.905Z,475
2017-06-18T07:50:44.458Z,430
2017-06-18T07:51:25.009Z,420
2017-06-18T07:52:05.562Z,415
2017-06-18T07:52:46.117Z,400
2017-06-18T07:53:26.659Z,375
2017-06-18T07:54:07.203Z,360
2017-06-18T07:54:47.739Z,350
2017-06-18T07:55:28.280Z,355
2017-06-18T07:56:08.842Z,360
2017-06-18T07:56:49.741Z,310
2017-06-18T07:57:30.755Z,380
2017-06-18T07:58:12.106Z,380
2017-06-18T07:58:52.652Z,360
2017-06-18T07:59:33.221Z,360
2017-06-18T08:00:13.987Z,380
2017-06-18T08:00:54.515Z,435
2017-06-18T08:03:30.965Z,450
2017-06-18T08:04:11.707Z,455
2017-06-18T08:04:52.476Z,450
2017-06-18T08:05:33.550Z,445
2017-06-18T08:06:14.103Z,445
2017-06-18T08:06:54.669Z,450
2017-06-18T08:07:35.215Z,475
2017-06-18T08:08:15.769Z,780
2017-06-18T08:08:56.308Z,1020
2017-06-18T08:09:36.871Z,2470
2017-06-18T08:10:17.425Z,2755
2017-06-18T08:10:57.973Z,2770
2017-06-18T08:11:38.526Z,2740
2017-06-18T08:12:19.104Z,2745
2017-06-18T08:12:59.673Z,2745
2017-06-18T08:13:40.220Z,2800
2017-06-18T08:14:20.769Z,2855
2017-06-18T08:15:01.480Z,2320
2017-06-18T08:15:42.147Z,2895
2017-06-18T08:16:22.922Z,2030
2017-06-18T08:17:03.859Z,2885
2017-06-18T08:17:44.611Z,2970
2017-06-18T08:18:25.572Z,3015
2017-06-18T08:19:06.360Z,3085
2017-06-18T08:19:46.908Z,445
2017-06-18T08:20:27.459Z,410
2017-06-18T08:21:07.995Z,425
2017-06-18T08:21:48.552Z,475
2017-06-18T08:22:29.092Z,1170
2017-06-18T08:23:09.743Z,2015
2017-06-18T08:23:50.298Z,495
2017-06-18T08:24:30.882Z,420
2017-06-18T08:25:11.766Z,415
2017-06-18T08:25:52.318Z,435
2017-06-18T08:26:33.041Z,475
2017-06-18T08:27:13.594Z,550
2017-06-18T08:27:54.142Z,655
2017-06-18T08:28:35.081Z,1130
2017-06-18T08:29:15.636Z,2245
2017-06-18T08:29:56.419Z,3045
2017-06-18T08:30:36.969Z,3075
2017-06-18T08:31:17.988Z,2970
2017-06-18T08:31:58.588Z,435
2017-06-18T08:32:39.538Z,355
2017-06-18T08:33:20.520Z,310
2017-06-18T08:34:01.094Z,305
2017-06-18T08:34:41.639Z,295
2017-06-18T08:35:22.194Z,320
2017-06-18T08:36:02.753Z,315
2017-06-18T08:36:43.322Z,300
2017-06-18T08:37:23.861Z,295
2017-06-18T08:38:04.416Z,300
2017-06-18T08:38:44.963Z,305
2017-06-18T08:39:25.533Z,320
2017-06-18T08:40:06.057Z,345
2017-06-18T08:40:46.625Z,385
2017-06-18T08:41:27.175Z,365
2017-06-18T08:42:07.722Z,355
2017-06-18T08:42:48.284Z,360
2017-06-18T08:43:28.848Z,385
2017-06-18T08:44:09.388Z,410
2017-06-18T08:44:49.968Z,410
2017-06-18T08:45:30.500Z,390
2017-06-18T08:46:11.118Z,360
2017-06-18T08:46:51.592Z,335
2017-06-18T08:47:32.131Z,325
2017-06-18T08:48:12.683Z,340
2017-06-18T08:48:53.252Z,370
2017-06-18T08:49:33.801Z,415
2017-06-18T08:50:14.357Z,595
2017-06-18T08:50:54.904Z,2865
2017-06-18T08:51:35.455Z,3605
2017-06-18T08:52:15.998Z,785
2017-06-18T08:52:56.561Z,3615
2017-06-18T08:53:37.111Z,3725
2017-06-18T08:54:17.662Z,3065
2017-06-18T08:54:58.206Z,3685
2017-06-18T08:55:38.750Z,770
2017-06-18T08:56:19.296Z,650
2017-06-18T08:56:59.849Z,565
2017-06-18T08:57:40.426Z,505
2017-06-18T08:58:20.983Z,475
2017-06-18T08:59:01.535Z,460
2017-06-18T08:59:42.076Z,480
2017-06-18T09:00:22.623Z,560
2017-06-18T09:01:03.182Z,950
2017-06-18T09:01:43.717Z,1905
2017-06-18T09:02:24.270Z,1395
2017-06-18T09:03:04.902Z,585
2017-06-18T09:03:45.444Z,545
2017-06-18T09:04:26.006Z,530
2017-06-18T09:05:06.556Z,530
2017-06-18T09:05:47.109Z,545
2017-06-18T09:06:27.661Z,630
2017-06-18T09:07:08.209Z,1250
2017-06-18T09:07:48.749Z,3375
2017-06-18T09:08:29.290Z,3005
2017-06-18T09:09:09.840Z,2680
2017-06-18T09:09:50.383Z,2250
2017-06-18T09:10:30.932Z,1865
2017-06-18T09:11:11.484Z,1430
2017-06-18T09:11:52.032Z,1065
2017-06-18T09:12:32.584Z,800
2017-06-18T09:13:13.125Z,730
2017-06-18T09:13:53.667Z,685
2017-06-18T09:14:34.207Z,650
2017-06-18T09:15:14.759Z,625
2017-06-18T09:15:55.310Z,615
2017-06-18T09:16:35.854Z,635
2017-06-18T09:17:16.411Z,650
2017-06-18T09:17:56.962Z,660
2017-06-18T09:18:37.512Z,670
2017-06-18T09:19:18.059Z,695
2017-06-18T09:19:58.611Z,715
2017-06-18T09:20:39.162Z,735
2017-06-18T09:21:19.711Z,760
2017-06-18T09:22:00.255Z,760
2017-06-18T09:22:40.805Z,725
2017-06-18T09:23:21.357Z,715
2017-06-18T09:24:01.908Z,680
2017-06-18T09:24:42.456Z,795
2017-06-18T09:25:23.002Z,765
2017-06-18T09:26:03.562Z,695
2017-06-18T09:26:44.114Z,650
2017-06-18T09:27:24.669Z,650
2017-06-18T09:28:05.226Z,770
2017-06-18T09:28:45.780Z,730
2017-06-18T09:29:26.312Z,695
2017-06-18T09:30:06.861Z,715
2017-06-18T09:30:47.412Z,710
2017-06-18T09:31:27.959Z,695
2017-06-18T09:32:08.512Z,720
2017-06-18T09:32:49.064Z,765
2017-06-18T09:33:29.609Z,800
2017-06-18T09:34:10.165Z,740
2017-06-18T09:34:50.730Z,695
2017-06-18T09:35:31.288Z,545
2017-06-18T09:36:11.840Z,445
2017-06-18T09:36:52.394Z,420
2017-06-18T09:37:32.944Z,445
2017-06-18T09:38:13.482Z,450
2017-06-18T09:38:54.042Z,465